createdAt,value
2023-01-29T00:03:50.771Z,7.85
2023-01-29T00:08:52.295Z,7.75
2023-01-29T00:13:53.960Z,7.13
2023-01-29T00:18:55.699Z,6.88
2023-01-29T00:23:57.926Z,6.38
2023-01-29T00:29:02.021Z,6.97
2023-01-29T00:34:03.701Z,5.80
2023-01-29T00:39:10.958Z,5.90
2023-01-29T00:44:31.563Z,6.90
2023-01-29T00:49:33.359Z,6.80
2023-01-29T00:54:35.338Z,7.07
2023-01-29T00:59:36.962Z,7.25
2023-01-29T01:04:38.734Z,6.93
2023-01-29T01:09:59.146Z,6.90
2023-01-29T01:15:00.739Z,7.03
2023-01-29T01:20:03.022Z,7.38
2023-01-29T01:25:04.933Z,8.73
2023-01-29T01:30:09.554Z,8.63
2023-01-29T01:35:11.932Z,8.30
2023-01-29T01:40:18.447Z,8.80
2023-01-29T01:45:26.352Z,8.90
2023-01-29T01:50:39.757Z,10.45
2023-01-29T02:00:47.286Z,9.55
2023-01-29T02:06:08.566Z,9.38
2023-01-29T02:11:10.206Z,9.27
2023-01-29T02:16:11.710Z,10.63
2023-01-29T02:21:16.423Z,10.52
2023-01-29T02:26:38.666Z,9.82
2023-01-29T02:31:48.191Z,9.00
2023-01-29T02:37:08.515Z,10.38
2023-01-29T02:42:31.579Z,9.38
2023-01-29T02:47:51.646Z,9.00
2023-01-29T02:52:54.157Z,8.23
2023-01-29T02:58:03.606Z,8.30
2023-01-29T03:03:20.572Z,9.10
2023-01-29T03:08:37.352Z,9.35
2023-01-29T03:14:02.606Z,8.73
2023-01-29T03:19:13.459Z,8.95
2023-01-29T03:24:38.076Z,7.82
2023-01-29T03:30:01.361Z,7.07
2023-01-29T03:35:33.362Z,7.53
2023-01-29T03:40:50.935Z,7.43
2023-01-29T03:46:03.436Z,7.30
2023-01-29T03:51:43.559Z,7.75
2023-01-29T03:56:51.264Z,8.15
2023-01-29T04:02:00.225Z,9.13
2023-01-29T04:07:13.074Z,8.93
2023-01-29T04:12:21.720Z,9.77
2023-01-29T04:17:35.745Z,8.77
2023-01-29T04:22:48.363Z,8.23
2023-01-29T04:28:09.795Z,8.02
2023-01-29T04:33:26.773Z,7.97
2023-01-29T04:38:34.252Z,8.13
2023-01-29T04:43:45.831Z,7.95
2023-01-29T04:49:23.871Z,8.48
2023-01-29T04:54:42.629Z,8.80
2023-01-29T04:59:54.515Z,8.93
2023-01-29T05:04:58.752Z,8.43
2023-01-29T05:10:00.857Z,9.10
2023-01-29T05:15:05.783Z,9.43
2023-01-29T05:20:09.167Z,8.23
2023-01-29T05:25:26.388Z,9.32
2023-01-29T05:30:27.971Z,9.02
2023-01-29T05:35:29.743Z,9.25
2023-01-29T05:40:31.568Z,8.32
2023-01-29T05:45:33.274Z,8.98
2023-01-29T05:50:34.894Z,8.85
2023-01-29T05:55:36.827Z,8.40
2023-01-29T06:00:38.421Z,8.95
2023-01-29T06:05:40.182Z,9.07
2023-01-29T06:10:42.888Z,9.63
2023-01-29T06:15:44.678Z,8.45
2023-01-29T06:20:46.415Z,9.13
2023-01-29T06:25:48.126Z,9.65
2023-01-29T06:30:49.804Z,8.75
2023-01-29T06:35:59.754Z,9.27
2023-01-29T06:41:09.397Z,8.68
2023-01-29T06:46:11.842Z,8.52
2023-01-29T06:51:13.330Z,8.07
2023-01-29T06:56:14.925Z,9.05
2023-01-29T07:01:33.396Z,9.82
2023-01-29T07:06:37.074Z,8.93
2023-01-29T07:11:38.764Z,9.60
2023-01-29T07:16:40.510Z,8.43
2023-01-29T07:21:42.063Z,7.90
2023-01-29T07:26:43.633Z,8.68
2023-01-29T07:31:45.446Z,8.30
2023-01-29T07:36:47.032Z,8.35
2023-01-29T07:41:48.935Z,8.50
2023-01-29T07:46:51.143Z,8.93
2023-01-29T07:51:52.766Z,8.07
2023-01-29T07:56:54.240Z,7.88
2023-01-29T08:01:55.798Z,8.35
2023-01-29T08:06:57.279Z,8.10
2023-01-29T08:11:58.779Z,8.23
2023-01-29T08:17:00.359Z,8.27
2023-01-29T08:22:01.827Z,8.57
2023-01-29T08:27:03.690Z,7.15
2023-01-29T08:32:05.442Z,7.75
2023-01-29T08:37:06.940Z,8.27
2023-01-29T08:42:08.434Z,8.60
2023-01-29T08:47:10.124Z,7.40
2023-01-29T08:52:11.789Z,7.78
2023-01-29T08:57:13.549Z,7.75
2023-01-29T09:02:15.140Z,8.30
2023-01-29T09:07:16.625Z,8.63
2023-01-29T09:12:18.189Z,8.38
2023-01-29T09:17:20.314Z,9.25
2023-01-29T09:22:21.831Z,8.57
2023-01-29T09:27:23.849Z,8.77
2023-01-29T09:32:51.752Z,9.50
2023-01-29T09:37:48.357Z,8.43
2023-01-29T09:42:57.744Z,8.98
2023-01-29T09:48:02.083Z,8.75
2023-01-29T09:53:21.942Z,8.73
2023-01-29T09:58:37.197Z,8.60
2023-01-29T10:04:06.353Z,8.73
2023-01-29T10:09:35.698Z,9.23
2023-01-29T10:14:59.036Z,8.98
2023-01-29T10:20:13.795Z,9.02
2023-01-29T10:25:21.620Z,9.00
2023-01-29T10:30:35.453Z,8.90
2023-01-29T10:35:44.439Z,8.82
2023-01-29T10:41:18.596Z,9.20
2023-01-29T10:46:31.702Z,8.40
2023-01-29T10:52:11.218Z,9.55
2023-01-29T10:57:36.811Z,9.13
2023-01-29T11:02:48.247Z,9.80
2023-01-29T11:08:03.031Z,10.32
2023-01-29T11:13:05.563Z,10.23
2023-01-29T11:18:15.942Z,9.30
2023-01-29T11:23:30.732Z,9.35
2023-01-29T11:28:38.350Z,8.10
2023-01-29T11:33:39.962Z,8.73
2023-01-29T11:38:41.767Z,9.57
2023-01-29T11:43:43.701Z,9.00
2023-01-29T11:48:58.943Z,8.73
2023-01-29T11:54:17.419Z,8.75
2023-01-29T11:59:25.046Z,8.68
2023-01-29T12:04:26.879Z,8.43
2023-01-29T12:09:29.551Z,9.07
2023-01-29T12:14:36.948Z,8.70
2023-01-29T12:19:42.776Z,9.00
2023-01-29T12:24:54.788Z,9.02
2023-01-29T12:30:19.286Z,9.07
2023-01-29T12:35:25.830Z,7.80
2023-01-29T12:40:33.439Z,8.20
2023-01-29T12:45:37.606Z,8.18
2023-01-29T12:50:40.945Z,8.32
2023-01-29T12:55:59.577Z,7.85
2023-01-29T13:01:08.475Z,8.20
2023-01-29T13:06:14.780Z,7.55
2023-01-29T13:11:22.845Z,7.80
2023-01-29T13:16:29.077Z,7.50
2023-01-29T13:21:40.207Z,7.38
2023-01-29T13:26:48.905Z,7.88
2023-01-29T13:31:55.639Z,8.18
2023-01-29T13:37:01.097Z,7.85
2023-01-29T13:42:16.231Z,8.88
2023-01-29T13:47:25.955Z,8.77
2023-01-29T13:52:40.817Z,7.93
2023-01-29T13:57:45.961Z,8.30
2023-01-29T14:02:48.301Z,8.70
2023-01-29T14:07:50.830Z,8.03
2023-01-29T14:13:01.399Z,8.67
2023-01-29T14:18:06.111Z,8.95
2023-01-29T14:23:18.503Z,8.23
2023-01-29T14:28:26.217Z,8.17
2023-01-29T14:33:38.454Z,7.97
2023-01-29T14:38:46.217Z,7.75
2023-01-29T14:43:47.699Z,8.15
2023-01-29T14:48:49.268Z,8.05
2023-01-29T14:54:02.523Z,8.68
2023-01-29T15:04:28.690Z,8.20
2023-01-29T15:09:40.185Z,8.93
2023-01-29T15:15:05.660Z,8.90
2023-01-29T15:20:27.118Z,8.00
2023-01-29T15:25:48.728Z,7.80
2023-01-29T15:30:58.930Z,9.57
2023-01-29T15:36:09.504Z,9.02
2023-01-29T15:41:23.547Z,8.73
2023-01-29T15:46:33.679Z,8.60
2023-01-29T15:51:35.564Z,8.88
2023-01-29T15:56:43.864Z,8.02
2023-01-29T16:01:45.649Z,7.55
2023-01-29T16:06:48.266Z,7.32
2023-01-29T16:11:51.268Z,7.20
2023-01-29T16:16:53.576Z,6.88
2023-01-29T16:22:01.548Z,7.80
2023-01-29T16:27:14.782Z,7.50
2023-01-29T16:32:16.699Z,7.43
2023-01-29T16:37:23.432Z,8.07
2023-01-29T16:42:26.838Z,7.80
2023-01-29T16:47:36.957Z,7.88
2023-01-29T16:52:38.486Z,7.47
2023-01-29T16:57:40.813Z,7.20
2023-01-29T17:02:42.319Z,6.77
2023-01-29T17:07:46.191Z,7.70
2023-01-29T17:13:01.933Z,7.78
2023-01-29T17:18:03.972Z,6.95
2023-01-29T17:23:05.414Z,6.88
2023-01-29T17:28:07.267Z,7.80
2023-01-29T17:33:14.268Z,8.20
2023-01-29T17:38:26.007Z,8.25
2023-01-29T17:43:28.494Z,8.10
2023-01-29T17:48:30.666Z,8.45
2023-01-29T17:53:45.189Z,8.10
2023-01-29T17:58:47.237Z,7.90
2023-01-29T18:03:48.709Z,7.97
2023-01-29T18:08:50.269Z,8.27
2023-01-29T18:13:51.737Z,7.80
2023-01-29T18:18:53.382Z,9.15
2023-01-29T18:23:54.875Z,8.70
2023-01-29T18:28:56.367Z,9.13
2023-01-29T18:33:58.091Z,8.68
2023-01-29T18:38:59.609Z,8.93
2023-01-29T18:44:01.079Z,8.80
2023-01-29T18:49:02.723Z,9.32
2023-01-29T18:54:04.366Z,8.38
2023-01-29T18:59:06.715Z,8.65
2023-01-29T19:04:08.513Z,7.75
2023-01-29T19:09:09.997Z,8.77
2023-01-29T19:14:11.514Z,8.00
2023-01-29T19:19:13.097Z,8.13
2023-01-29T19:24:15.289Z,7.65
2023-01-29T19:29:17.609Z,7.07
2023-01-29T19:34:19.202Z,7.77
2023-01-29T19:39:20.760Z,7.53
2023-01-29T19:44:22.320Z,7.88
2023-01-29T19:49:23.876Z,7.47
2023-01-29T19:54:27.637Z,8.52
2023-01-29T19:59:29.076Z,7.35
2023-01-29T20:04:30.633Z,7.25
2023-01-29T20:09:32.112Z,7.70
2023-01-29T20:14:33.633Z,7.50
2023-01-29T20:19:35.076Z,7.28
2023-01-29T20:24:39.455Z,7.50
2023-01-29T20:29:40.987Z,7.47
2023-01-29T20:34:42.694Z,7.82
2023-01-29T20:39:44.176Z,6.90
2023-01-29T20:44:45.710Z,7.63
2023-01-29T20:49:47.219Z,8.35
2023-01-29T20:54:48.678Z,7.63
2023-01-29T20:59:50.363Z,8.27
2023-01-29T21:04:52.081Z,8.68
2023-01-29T21:09:53.521Z,8.70
2023-01-29T21:14:55.183Z,9.80
2023-01-29T21:19:56.652Z,8.75
2023-01-29T21:24:58.105Z,8.65
2023-01-29T21:29:59.776Z,9.52
2023-01-29T21:35:01.219Z,9.00
2023-01-29T21:40:06.708Z,9.68
2023-01-29T21:45:09.085Z,9.70
2023-01-29T21:50:11.178Z,9.90
2023-01-29T21:55:12.620Z,9.40
2023-01-29T22:00:14.690Z,10.20
2023-01-29T22:05:19.620Z,10.18
2023-01-29T22:10:22.300Z,10.20
2023-01-29T22:15:24.232Z,11.33
2023-01-29T22:20:30.063Z,10.70
2023-01-29T22:25:32.211Z,9.80
2023-01-29T22:30:33.837Z,9.88
2023-01-29T22:35:35.332Z,9.35
2023-01-29T22:40:36.748Z,9.00
2023-01-29T22:45:39.374Z,8.68
2023-01-29T22:50:41.563Z,9.03
2023-01-29T22:55:42.988Z,9.93
2023-01-29T23:00:44.418Z,8.98
2023-01-29T23:05:45.845Z,8.68
2023-01-29T23:10:47.414Z,8.65
2023-01-29T23:15:58.185Z,8.48
2023-01-29T23:20:59.703Z,8.93
2023-01-29T23:26:21.856Z,9.20
2023-01-29T23:31:23.791Z,8.85
2023-01-29T23:36:25.427Z,9.55
2023-01-29T23:41:27.019Z,9.20
2023-01-29T23:46:28.504Z,8.35
2023-01-29T23:51:30.009Z,7.80
2023-01-29T23:56:32.125Z,8.50
